sensor_id;sensor_type;location;lat;lon;timestamp;pressure;altitude;pressure_sealevel;temperature;humidity
46382;BME280;66809;52.974;-2.514;2023-10-13T00:01:40;998.2492296531836;;;12.095072000180178;45.28421232842709
46382;BME280;66809;52.974;-2.514;2023-10-13T00:03:40;998.2026229709825;;;12.0827605991714;45.29964552750055
46382;BME280;66809;52.974;-2.514;2023-10-13T00:05:42;998.1572294383217;;;12.071264219251738;45.30829838775118
46382;BME280;66809;52.974;-2.514;2023-10-13T00:07:40;998.1114969540334;;;12.07012347163835;45.317053856040495
46382;BME280;66809;52.974;-2.514;2023-10-13T00:09:40;998.0646210063585;;;12.049657830664021;45.328853764555866
46382;BME280;66809;52.974;-2.514;2023-10-13T00:11:42;998.0180387440839;;;12.039362968317104;45.33829684546198
46382;BME280;66809;52.974;-2.514;2023-10-13T00:13:40;997.9694186534886;;;12.023014411880329;45.34835036675273
46382;BME280;66809;52.974;-2.514;2023-10-13T00:15:40;997.9202211911041;;;12.020710058598931;45.35744694972513
46382;BME280;66809;52.974;-2.514;2023-10-13T00:17:41;997.8710971348457;;;12.02223496622074;45.362312602188126
46382;BME280;66809;52.974;-2.514;2023-10-13T00:19:40;997.8238682877779;;;12.022020619772539;45.372470278438996
46382;BME280;66809;52.974;-2.514;2023-10-13T00:21:40;997.7762284904917;;;12.013836869514869;45.384211289411375
46382;BME280;66809;52.974;-2.514;2023-10-13T00:23:41;997.7278572690296;;;11.998347494484836;45.388792746773795
46382;BME280;66809;52.974;-2.514;2023-10-13T00:25:40;997.6804094828028;;;12.004945192798846;45.39198779866732
46382;BME280;66809;52.974;-2.514;2023-10-13T00:27:40;997.6359871490498;;;12.001596833502068;45.404871776930925
46382;BME280;66809;52.974;-2.514;2023-10-13T00:29:40;997.5914600298928;;;11.994696488933966;45.41667980057867
46382;BME280;66809;52.974;-2.514;2023-10-13T00:31:41;997.5471527495006;;;11.977381697978867;45.425537520130526
46382;BME280;66809;52.974;-2.514;2023-10-13T00:33:41;997.5044751529751;;;11.96848376879934;45.436775030124274
46382;BME280;66809;52.974;-2.514;2023-10-13T00:35:43;997.4612830987381;;;11.96107302556726;45.443899478677594
46382;BME280;66809;52.974;-2.514;2023-10-13T00:37:40;997.4186310360062;;;11.935673341387885;45.4532881738671
46382;BME280;66809;52.974;-2.514;2023-10-13T00:39:40;997.3747473954339;;;11.935360315100954;45.464946743544026
46382;BME280;66809;52.974;-2.514;2023-10-13T00:41:40;997.3304091661298;;;11.934007559775104;45.47083250746449
46382;BME280;66809;52.974;-2.514;2023-10-13T00:43:45;997.2866796617943;;;11.926556948926304;45.48348969676332
46382;BME280;66809;52.974;-2.514;2023-10-13T00:45:40;997.2403163769934;;;11.929764446423148;45.491731124316885
46382;BME280;66809;52.974;-2.514;2023-10-13T00:47:41;997.1933549254445;;;11.91180697031346;45.500156770210985
46382;BME280;66809;52.974;-2.514;2023-10-13T00:49:41;997.1468179751532;;;11.908086938483681;45.51224501155162
46382;BME280;66809;52.974;-2.514;2023-10-13T00:51:40;997.0991478066763;;;11.897372160199586;45.520615949424354
46382;BME280;66809;52.974;-2.514;2023-10-13T00:53:40;997.0502926745831;;;11.898567418288836;45.52890372196507
46382;BME280;66809;52.974;-2.514;2023-10-13T00:55:40;997.0003355262884;;;11.91128406467811;45.53255781203585
46382;BME280;66809;52.974;-2.514;2023-10-13T00:57:41;996.9498405385036;;;11.905205159052112;45.53474047532455
46382;BME280;66809;52.974;-2.514;2023-10-13T00:59:41;996.8991415639775;;;11.909582707274037;45.53899113110056
46382;BME280;66809;52.974;-2.514;2023-10-13T01:01:40;996.8478531649868;;;11.916503978948752;45.550595810904355
46382;BME280;66809;52.974;-2.514;2023-10-13T01:03:40;996.7935142758121;;;11.920116927270504;45.56397784467137
46382;BME280;66809;52.974;-2.514;2023-10-13T01:05:41;996.7373997412454;;;11.928300677415203;45.57729062070466
46382;BME280;66809;52.974;-2.514;2023-10-13T01:07:40;996.6817658069093;;;11.926080535863429;45.584928437127964
46382;BME280;66809;52.974;-2.514;2023-10-13T01:09:40;996.6289739826329;;;11.945655540757446;45.583149189256474
46382;BME280;66809;52.974;-2.514;2023-10-13T01:11:41;996.5766589273778;;;11.963634125217832;45.57900323270988
46382;BME280;66809;52.974;-2.514;2023-10-13T01:13:41;996.5246532736971;;;11.982139897756584;45.57758313580466
46382;BME280;66809;52.974;-2.514;2023-10-13T01:15:40;996.4728348863753;;;11.994035278200931;45.586174173801254
46382;BME280;66809;52.974;-2.514;2023-10-13T01:17:40;996.4199127874956;;;11.997616766169568;45.601060306370435
46382;BME280;66809;52.974;-2.514;2023-10-13T01:19:41;996.3658731031958;;;11.993884222451682;45.61085167644726
46382;BME280;66809;52.974;-2.514;2023-10-13T01:21:40;996.3129558784465;;;11.989689561567358;45.62398150489582
46382;BME280;66809;52.974;-2.514;2023-10-13T01:23:40;996.2601492381388;;;12.001645906850195;45.63653371357774
46382;BME280;66809;52.974;-2.514;2023-10-13T01:25:40;996.2048370027876;;;12.004338906733542;45.64839950389746
46382;BME280;66809;52.974;-2.514;2023-10-13T01:27:41;996.1442826744947;;;12.016490635436586;45.65145759296817
46382;BME280;66809;52.974;-2.514;2023-10-13T01:29:40;996.0816825875431;;;12.021502631352996;45.64959004818184
46382;BME280;66809;52.974;-2.514;2023-10-13T01:31:41;996.0205239858258;;;12.044595994743295;45.652429732783744
46382;BME280;66809;52.974;-2.514;2023-10-13T01:33:40;995.9591950977734;;;12.069913799559645;45.65839709593542
46382;BME280;66809;52.974;-2.514;2023-10-13T01:35:40;995.8988120584733;;;12.073041564032007;45.671414350450156
46382;BME280;66809;52.974;-2.514;2023-10-13T01:37:41;995.8372158627901;;;12.09120283984267;45.6843393764939
46382;BME280;66809;52.974;-2.514;2023-10-13T01:39:40;995.7756177637912;;;12.099252153515176;45.69902849647497
46382;BME280;66809;52.974;-2.514;2023-10-13T01:41:40;995.7138050312914;;;12.098783778038982;45.71536399429403
46382;BME280;66809;52.974;-2.514;2023-10-13T01:43:40;995.6516306659828;;;12.102463944907953;45.73631093744782
46382;BME280;66809;52.974;-2.514;2023-10-13T01:45:40;995.590150093047;;;12.112779707421634;45.75736781224403
46382;BME280;66809;52.974;-2.514;2023-10-13T01:47:40;995.5281374585446;;;12.130008338583846;45.781287285497505
46382;BME280;66809;52.974;-2.514;2023-10-13T01:49:41;995.465974018328;;;12.131548091089568;45.80421746435185
46382;BME280;66809;52.974;-2.514;2023-10-13T01:51:40;995.4042321224263;;;12.142569643355163;45.830095210334534
46382;BME280;66809;52.974;-2.514;2023-10-13T01:53:41;995.3430687301603;;;12.146703532292632;45.861264102986915
46382;BME280;66809;52.974;-2.514;2023-10-13T01:55:41;995.2835379451603;;;12.14993213181534;45.89157499921689
46382;BME280;66809;52.974;-2.514;2023-10-13T01:57:40;995.2252407791581;;;12.15999798738114;45.91620455583505
46382;BME280;66809;52.974;-2.514;2023-10-13T01:59:40;995.1667268786969;;;12.170677205709605;45.94575192566822
46382;BME280;66809;52.974;-2.514;2023-10-13T02:01:40;995.1090114326214;;;12.178073311611692;45.96352043336095
46382;BME280;66809;52.974;-2.514;2023-10-13T02:03:41;995.0530342193956;;;12.188191741748911;45.984452809663495
46382;BME280;66809;52.974;-2.514;2023-10-13T02:05:41;994.9971871880442;;;12.191086421283055;46.00281397120593
46382;BME280;66809;52.974;-2.514;2023-10-13T02:07:41;994.9409957165927;;;12.197782230829517;46.02235564844165
46382;BME280;66809;52.974;-2.514;2023-10-13T02:09:40;994.8814706896283;;;12.203808795828303;46.0497511932369
46382;BME280;66809;52.974;-2.514;2023-10-13T02:11:41;994.8206321710979;;;12.207291646690843;46.0772595597792
46382;BME280;66809;52.974;-2.514;2023-10-13T02:13:40;994.7599272789728;;;12.21359764292629;46.100852333259276
46382;BME280;66809;52.974;-2.514;2023-10-13T02:15:40;994.6992742390814;;;12.211191915954872;46.117775520879036
46382;BME280;66809;52.974;-2.514;2023-10-13T02:17:41;994.6393947763536;;;12.220480704510132;46.12900767479058
46382;BME280;66809;52.974;-2.514;2023-10-13T02:19:40;994.5793221496702;;;12.233772267810679;46.13808121782415
46382;BME280;66809;52.974;-2.514;2023-10-13T02:21:40;994.5159981026728;;;12.25118169587912;46.143998029075426
46382;BME280;66809;52.974;-2.514;2023-10-13T02:23:41;994.4518646367395;;;12.26785173164702;46.15728231668183
46382;BME280;66809;52.974;-2.514;2023-10-13T02:25:40;994.3904254679369;;;12.278274829990771;46.171866933601684
46382;BME280;66809;52.974;-2.514;2023-10-13T02:27:40;994.3314513353446;;;12.283202099560397;46.183405716361925
46382;BME280;66809;52.974;-2.514;2023-10-13T02:29:41;994.2730310585011;;;12.306325044258065;46.196241497207886
46382;BME280;66809;52.974;-2.514;2023-10-13T02:31:41;994.2123570207947;;;12.314506899496699;46.20956525743741
46382;BME280;66809;52.974;-2.514;2023-10-13T02:33:40;994.1504973357282;;;12.318108769627846;46.22181884140658
46382;BME280;66809;52.974;-2.514;2023-10-13T02:35:40;994.0875518570215;;;12.328444146514462;46.230850948409014
46382;BME280;66809;52.974;-2.514;2023-10-13T02:37:41;994.0247204905263;;;12.344740405499355;46.23437303941672
46382;BME280;66809;52.974;-2.514;2023-10-13T02:39:41;993.9608724631632;;;12.355249688174387;46.24201765990145
46382;BME280;66809;52.974;-2.514;2023-10-13T02:41:40;993.8964781333656;;;12.38359666598095;46.25043987505651
46382;BME280;66809;52.974;-2.514;2023-10-13T02:43:40;993.829818866278;;;12.390478716716217;46.257288372996825
46382;BME280;66809;52.974;-2.514;2023-10-13T02:45:40;993.7629933408385;;;12.404741624692003;46.26247137969228
46382;BME280;66809;52.974;-2.514;2023-10-13T02:47:40;993.6951505450903;;;12.41181438048356;46.26764037865278
46382;BME280;66809;52.974;-2.514;2023-10-13T02:49:41;993.6260272043467;;;12.432055359346887;46.271130728918976
46382;BME280;66809;52.974;-2.514;2023-10-13T02:51:40;993.5563861897461;;;12.446803441771399;46.276089962535735
46382;BME280;66809;52.974;-2.514;2023-10-13T02:53:40;993.4859052330768;;;12.456190133722236;46.27938554348402
46382;BME280;66809;52.974;-2.514;2023-10-13T02:55:50;993.4145472908351;;;12.46794079221781;46.28377127352149
46382;BME280;66809;52.974;-2.514;2023-10-13T02:57:41;993.3430946704968;;;12.48025441716649;46.28727200990274
46382;BME280;66809;52.974;-2.514;2023-10-13T02:59:41;993.2710983739086;;;12.497472788733827;46.290384649473616
46382;BME280;66809;52.974;-2.514;2023-10-13T03:01:41;993.1972536038503;;;12.519377450998617;46.29349280158279
46382;BME280;66809;52.974;-2.514;2023-10-13T03:03:41;993.123423441759;;;12.524932008944022;46.29463319544853
46382;BME280;66809;52.974;-2.514;2023-10-13T03:05:40;993.049340106131;;;12.546786275882871;46.29193629464983
46382;BME280;66809;52.974;-2.514;2023-10-13T03:07:40;992.9756673930387;;;12.569439511949842;46.298447497175786
46382;BME280;66809;52.974;-2.514;2023-10-13T03:09:41;992.902896622449;;;12.579303013405458;46.310261131234135
46382;BME280;66809;52.974;-2.514;2023-10-13T03:11:41;992.8313351919776;;;12.595233700534132;46.31765070953468
46382;BME280;66809;52.974;-2.514;2023-10-13T03:13:40;992.761213567056;;;12.610660250074522;46.32503564610442
46382;BME280;66809;52.974;-2.514;2023-10-13T03:15:40;992.6916760271409;;;12.628020064814724;46.33278813515223
46382;BME280;66809;52.974;-2.514;2023-10-13T03:17:41;992.621998667414;;;12.632018788939243;46.34446046724418
46382;BME280;66809;52.974;-2.514;2023-10-13T03:19:42;992.5504479130461;;;12.638816213172674;46.360339767701284
46382;BME280;66809;52.974;-2.514;2023-10-13T03:21:40;992.4795131890871;;;12.644672584383677;46.38525829255858
46382;BME280;66809;52.974;-2.514;2023-10-13T03:23:41;992.408697794693;;;12.648579632511366;46.4086873128745
46382;BME280;66809;52.974;-2.514;2023-10-13T03:25:40;992.3371260325196;;;12.651217940861638;46.4350575176183
46382;BME280;66809;52.974;-2.514;2023-10-13T03:27:41;992.2667266486792;;;12.662620555296936;46.45928896434847
46382;BME280;66809;52.974;-2.514;2023-10-13T03:29:40;992.1971888115174;;;12.668502136396292;46.48735687614598
46382;BME280;66809;52.974;-2.514;2023-10-13T03:31:40;992.1274020675909;;;12.67631623770889;46.50757307301573
46382;BME280;66809;52.974;-2.514;2023-10-13T03:33:40;992.057610484484;;;12.695530779480292;46.5275026403034
46382;BME280;66809;52.974;-2.514;2023-10-13T03:35:41;991.9876129047334;;;12.714101275196837;46.54663471370032
46382;BME280;66809;52.974;-2.514;2023-10-13T03:37:41;991.9183874815895;;;12.720873499967462;46.56576344575525
46382;BME280;66809;52.974;-2.514;2023-10-13T03:39:40;991.8519455798843;;;12.723813547339011;46.58490731919162
46382;BME280;66809;52.974;-2.514;2023-10-13T03:41:40;991.7868183708649;;;12.719632833458698;46.59600378687043
46382;BME280;66809;52.974;-2.514;2023-10-13T03:43:40;991.7248451509162;;;12.737286733739927;46.60228736706726
46382;BME280;66809;52.974;-2.514;2023-10-13T03:45:41;991.6650784330159;;;12.744974059966735;46.61163098728854
46382;BME280;66809;52.974;-2.514;2023-10-13T03:47:41;991.607399478579;;;12.756761692145743;46.618351583660164
46382;BME280;66809;52.974;-2.514;2023-10-13T03:49:40;991.550539460011;;;12.773356166759234;46.622506731842876
46382;BME280;66809;52.974;-2.514;2023-10-13T03:51:41;991.4953779735016;;;12.780967870380362;46.63155637165521
46382;BME280;66809;52.974;-2.514;2023-10-13T03:53:41;991.4419883387258;;;12.801688602202637;46.637375313384084
46382;BME280;66809;52.974;-2.514;2023-10-13T03:55:41;991.3893185984826;;;12.813098881719764;46.64936337949378
46382;BME280;66809;52.974;-2.514;2023-10-13T03:57:40;991.3382943349721;;;12.818954527949217;46.66459903826213
46382;BME280;66809;52.974;-2.514;2023-10-13T03:59:40;991.2886390184506;;;12.82594448519645;46.67728768787473
46382;BME280;66809;52.974;-2.514;2023-10-13T04:01:41;991.2409636902764;;;12.823187062613107;46.69348552852588
46382;BME280;66809;52.974;-2.514;2023-10-13T04:03:41;991.1935508752326;;;12.832816809472638;46.71112345624092
46382;BME280;66809;52.974;-2.514;2023-10-13T04:05:40;991.1456913931132;;;12.82873256541531;46.74035155600863
46382;BME280;66809;52.974;-2.514;2023-10-13T04:07:40;991.0954238426245;;;12.832261521016177;46.76329766240682
46382;BME280;66809;52.974;-2.514;2023-10-13T04:09:41;991.0446050855509;;;12.833958780544398;46.780916905676875
46382;BME280;66809;52.974;-2.514;2023-10-13T04:11:40;990.9926365628417;;;12.824774356346579;46.80970694247552
46382;BME280;66809;52.974;-2.514;2023-10-13T04:13:40;990.9402444632267;;;12.82177474556144;46.84174647738894
46382;BME280;66809;52.974;-2.514;2023-10-13T04:15:43;990.8884621656772;;;12.814464029102513;46.87870815901385
46382;BME280;66809;52.974;-2.514;2023-10-13T04:17:40;990.8372189834832;;;12.82217805470499;46.91068471107335
46382;BME280;66809;52.974;-2.514;2023-10-13T04:19:41;990.7871267134539;;;12.82254700986147;46.93826752222961
46382;BME280;66809;52.974;-2.514;2023-10-13T04:21:40;990.7393307923879;;;12.829361247168963;46.95267921712077
46382;BME280;66809;52.974;-2.514;2023-10-13T04:23:40;990.6928905909275;;;12.832200467220922;46.969466279680574
46382;BME280;66809;52.974;-2.514;2023-10-13T04:25:40;990.6468999950372;;;12.830342077536441;46.97770746260385
46382;BME280;66809;52.974;-2.514;2023-10-13T04:27:40;990.6024138973268;;;12.830929493438637;46.9908384452608
46382;BME280;66809;52.974;-2.514;2023-10-13T04:29:41;990.5608856226544;;;12.836356622666335;46.998897205189444
46382;BME280;66809;52.974;-2.514;2023-10-13T04:31:41;990.5183860946729;;;12.837128157141828;47.00656924208182
46382;BME280;66809;52.974;-2.514;2023-10-13T04:33:40;990.4743511653637;;;12.838146284041553;47.011383711648264
46382;BME280;66809;52.974;-2.514;2023-10-13T04:35:40;990.4295888817311;;;12.843573422128248;47.014030110925724
46382;BME280;66809;52.974;-2.514;2023-10-13T04:37:41;990.38596979508;;;12.84760577965822;47.019615402415546
46382;BME280;66809;52.974;-2.514;2023-10-13T04:39:40;990.3424709485386;;;12.864528710655582;47.024918558395974
46382;BME280;66809;52.974;-2.514;2023-10-13T04:41:41;990.3000929271678;;;12.872202189822131;47.038298431276786
46382;BME280;66809;52.974;-2.514;2023-10-13T04:43:40;990.2568697843842;;;12.883872238401539;47.048271135786905
46382;BME280;66809;52.974;-2.514;2023-10-13T04:45:40;990.214448137543;;;12.893979465371155;47.05281977796799
46382;BME280;66809;52.974;-2.514;2023-10-13T04:47:41;990.1749609758862;;;12.90275913567931;47.06257646980016
46382;BME280;66809;52.974;-2.514;2023-10-13T04:49:40;990.1377055749433;;;12.907832671189356;47.063979372555046
46382;BME280;66809;52.974;-2.514;2023-10-13T04:51:40;990.0988085701777;;;12.917032446907362;47.06114125017262
46382;BME280;66809;52.974;-2.514;2023-10-13T04:53:41;990.058680019805;;;12.929568663239479;47.06192715596103
46382;BME280;66809;52.974;-2.514;2023-10-13T04:55:40;990.0171582416767;;;12.933239008580273;47.06529512159957
46382;BME280;66809;52.974;-2.514;2023-10-13T04:57:40;989.9766183126518;;;12.932167186614432;47.0705248140133
46382;BME280;66809;52.974;-2.514;2023-10-13T04:59:40;989.9365440293179;;;12.940274685249475;47.060887334744706
46382;BME280;66809;52.974;-2.514;2023-10-13T05:01:40;989.8993646524573;;;12.962012152803686;47.04850985032647
46382;BME280;66809;52.974;-2.514;2023-10-13T05:03:41;989.862473015471;;;12.967223045931743;47.04193970911017
46382;BME280;66809;52.974;-2.514;2023-10-13T05:05:43;989.8238413685596;;;12.968890364370878;47.02987103612419
46382;BME280;66809;52.974;-2.514;2023-10-13T05:07:41;989.7863501797997;;;12.9713445804619;47.020570175615234
46382;BME280;66809;52.974;-2.514;2023-10-13T05:09:41;989.7503053506081;;;12.979496270471031;47.007825389229836
46382;BME280;66809;52.974;-2.514;2023-10-13T05:11:40;989.7194230076108;;;12.990311477309179;46.9939291378629
46382;BME280;66809;52.974;-2.514;2023-10-13T05:13:41;989.6935798869904;;;13.002022809671926;46.98437899711232
46382;BME280;66809;52.974;-2.514;2023-10-13T05:15:47;989.6694260873534;;;13.022868157898008;46.966695258981154
46382;BME280;66809;52.974;-2.514;2023-10-13T05:17:40;989.6438170397444;;;13.040814722403013;46.94593246309452
46382;BME280;66809;52.974;-2.514;2023-10-13T05:19:41;989.61698532806;;;13.063694163882534;46.921027995094796
46382;BME280;66809;52.974;-2.514;2023-10-13T05:21:40;989.5876218522147;;;13.0752458607469;46.90596250996067
46382;BME280;66809;52.974;-2.514;2023-10-13T05:23:40;989.557699957768;;;13.10262125471118;46.88065392553441
46382;BME280;66809;52.974;-2.514;2023-10-13T05:25:40;989.5302585486281;;;13.124848244028708;46.861440517878584
46382;BME280;66809;52.974;-2.514;2023-10-13T05:27:40;989.4991811816944;;;13.141173175468719;46.836621513932855
46382;BME280;66809;52.974;-2.514;2023-10-13T05:29:41;989.4716636085595;;;13.148493054962021;46.818163885658166
46382;BME280;66809;52.974;-2.514;2023-10-13T05:31:40;989.4521855294071;;;13.16577659243332;46.81151073183186
46382;BME280;66809;52.974;-2.514;2023-10-13T05:33:41;989.4328805944335;;;13.18582449660758;46.801037166100876
46382;BME280;66809;52.974;-2.514;2023-10-13T05:35:40;989.4101195703889;;;13.192236938799509;46.7863027111393
46382;BME280;66809;52.974;-2.514;2023-10-13T05:37:40;989.3846495855687;;;13.204041454400892;46.771572901332426
46382;BME280;66809;52.974;-2.514;2023-10-13T05:39:41;989.3575615571042;;;13.200580468544585;46.757006046051465
46382;BME280;66809;52.974;-2.514;2023-10-13T05:41:41;989.3321085202559;;;13.208393900631815;46.7437233028182
46382;BME280;66809;52.974;-2.514;2023-10-13T05:43:40;989.3073623055319;;;13.215504465750971;46.74233843741804
46382;BME280;66809;52.974;-2.514;2023-10-13T05:45:40;989.2753558318495;;;13.23428435279794;46.73643035247798
46382;BME280;66809;52.974;-2.514;2023-10-13T05:47:41;989.2407831969799;;;13.236464970092156;46.71160460388362
46382;BME280;66809;52.974;-2.514;2023-10-13T05:49:40;989.2064096185487;;;13.242382412710153;46.70409957567442
46382;BME280;66809;52.974;-2.514;2023-10-13T05:51:40;989.1742967072786;;;13.257498176804468;46.69495442420713
46382;BME280;66809;52.974;-2.514;2023-10-13T05:53:41;989.1432879550586;;;13.251955640769813;46.684928187517585
46382;BME280;66809;52.974;-2.514;2023-10-13T05:55:40;989.1134302095007;;;13.262082642762545;46.66199847844511
46382;BME280;66809;52.974;-2.514;2023-10-13T05:57:40;989.0818122963551;;;13.271965986699053;46.635320208854885
46382;BME280;66809;52.974;-2.514;2023-10-13T05:59:40;989.0478770980033;;;13.27403738298005;46.61944708618583
46382;BME280;66809;52.974;-2.514;2023-10-13T06:01:40;989.0121400951534;;;13.274047289477899;46.611741243854574
46382;BME280;66809;52.974;-2.514;2023-10-13T06:03:41;988.9771766731129;;;13.285653109558428;46.59718507015906
46382;BME280;66809;52.974;-2.514;2023-10-13T06:05:40;988.9495218152005;;;13.302819055675611;46.584703833330146
46382;BME280;66809;52.974;-2.514;2023-10-13T06:07:40;988.9287531253973;;;13.321682282463108;46.5703621658338
46382;BME280;66809;52.974;-2.514;2023-10-13T06:09:41;988.9101979980189;;;13.343477920185308;46.551012190729914
46382;BME280;66809;52.974;-2.514;2023-10-13T06:11:40;988.8878240381038;;;13.360948571117953;46.52240798020331
46382;BME280;66809;52.974;-2.514;2023-10-13T06:13:40;988.8586185818292;;;13.376461482401995;46.490149083575766
46382;BME280;66809;52.974;-2.514;2023-10-13T06:15:40;988.8250562684276;;;13.39608932397672;46.45896805528005
46382;BME280;66809;52.974;-2.514;2023-10-13T06:17:40;988.7968647500408;;;13.407988542143544;46.43775294965486
46382;BME280;66809;52.974;-2.514;2023-10-13T06:19:41;988.7696235844536;;;13.42298051442458;46.41553038328972
46382;BME280;66809;52.974;-2.514;2023-10-13T06:21:41;988.7437240441296;;;13.43400040282508;46.386023758905935
46382;BME280;66809;52.974;-2.514;2023-10-13T06:23:40;988.7177896523497;;;13.43451597504219;46.368444820336
46382;BME280;66809;52.974;-2.514;2023-10-13T06:25:40;988.6980547906738;;;13.450555327136641;46.35372723660428
46382;BME280;66809;52.974;-2.514;2023-10-13T06:27:41;988.6818139451483;;;13.46470929594014;46.33842474217526
46382;BME280;66809;52.974;-2.514;2023-10-13T06:29:40;988.6557724961262;;;13.484272156662914;46.31297774198715
46382;BME280;66809;52.974;-2.514;2023-10-13T06:31:40;988.6227017934136;;;13.502039156227271;46.267044935372574
46382;BME280;66809;52.974;-2.514;2023-10-13T06:33:40;988.5954768174007;;;13.509310941895395;46.228567214733
46382;BME280;66809;52.974;-2.514;2023-10-13T06:35:49;988.5785344487274;;;13.521215331803369;46.20065498993438
46382;BME280;66809;52.974;-2.514;2023-10-13T06:37:40;988.5637296234646;;;13.545006831295803;46.160947933878305
46382;BME280;66809;52.974;-2.514;2023-10-13T06:39:40;988.5506537726309;;;13.573318798118951;46.11328408826568
46382;BME280;66809;52.974;-2.514;2023-10-13T06:41:40;988.539084931568;;;13.59781544666601;46.06197477204057
46382;BME280;66809;52.974;-2.514;2023-10-13T06:43:41;988.5306761925184;;;13.623482954323249;46.008305683823565
46382;BME280;66809;52.974;-2.514;2023-10-13T06:45:42;988.532558364396;;;13.641049255390291;45.96440491748902
46382;BME280;66809;52.974;-2.514;2023-10-13T06:47:40;988.5351474974296;;;13.67142761243645;45.916933770472184
46382;BME280;66809;52.974;-2.514;2023-10-13T06:49:40;988.5377986924755;;;13.694178852104214;45.871434538395285
46382;BME280;66809;52.974;-2.514;2023-10-13T06:51:40;988.5344802733929;;;13.722812424011579;45.81744597217646
46382;BME280;66809;52.974;-2.514;2023-10-13T06:53:40;988.5311041579903;;;13.750854919011344;45.75892568452673
46382;BME280;66809;52.974;-2.514;2023-10-13T06:55:40;988.5320921327285;;;13.785040235708248;45.704044442159535
46382;BME280;66809;52.974;-2.514;2023-10-13T06:57:41;988.5344023464258;;;13.812113583821011;45.655661493212
46382;BME280;66809;52.974;-2.514;2023-10-13T06:59:40;988.5381285635688;;;13.840718424035975;45.60947693778728
46382;BME280;66809;52.974;-2.514;2023-10-13T07:01:40;988.5427217338384;;;13.87063629495999;45.55266601906722
46382;BME280;66809;52.974;-2.514;2023-10-13T07:03:41;988.5484137750594;;;13.909728024019707;45.48822973475781
46382;BME280;66809;52.974;-2.514;2023-10-13T07:05:41;988.5517533259115;;;13.949693613226414;45.40868196639122
46382;BME280;66809;52.974;-2.514;2023-10-13T07:07:41;988.5495320965;;;13.970931862649824;45.32919089722764
46382;BME280;66809;52.974;-2.514;2023-10-13T07:09:40;988.5463548595822;;;13.991061002892195;45.261823659531906
46382;BME280;66809;52.974;-2.514;2023-10-13T07:11:40;988.5494693609179;;;14.017304834895462;45.207692464568446
46382;BME280;66809;52.974;-2.514;2023-10-13T07:13:41;988.5625213619512;;;14.051657641382347;45.155058179792704